createdAt,value
2023-06-18T00:02:15.898Z,5.97
2023-06-18T00:04:43.933Z,5.57
2023-06-18T00:07:11.684Z,5.70
2023-06-18T00:12:07.393Z,5.68
2023-06-18T00:14:35.716Z,6.60
2023-06-18T00:17:03.777Z,5.43
2023-06-18T00:19:31.326Z,5.78
2023-06-18T00:22:00.448Z,5.68
2023-06-18T00:24:28.804Z,5.78
2023-06-18T00:26:56.397Z,5.88
2023-06-18T00:31:52.250Z,5.85
2023-06-18T00:36:51.894Z,5.50
2023-06-18T00:39:20.036Z,5.70
2023-06-18T00:46:47.573Z,6.28
2023-06-18T00:49:16.834Z,6.03
2023-06-18T00:51:45.772Z,5.90
2023-06-18T00:54:16.213Z,5.70
2023-06-18T00:56:53.320Z,6.07
2023-06-18T00:59:23.935Z,5.65
2023-06-18T01:01:54.500Z,6.35
2023-06-18T01:04:25.032Z,6.15
2023-06-18T01:06:58.803Z,5.97
2023-06-18T01:09:28.101Z,5.90
2023-06-18T01:11:56.369Z,6.32
2023-06-18T01:14:29.837Z,6.50
2023-06-18T01:17:01.828Z,6.10
2023-06-18T01:19:58.563Z,6.22
2023-06-18T01:22:53.248Z,6.28
2023-06-18T01:25:23.944Z,6.22
2023-06-18T01:27:52.171Z,6.05
2023-06-18T01:30:20.444Z,6.00
2023-06-18T01:32:48.712Z,6.15
2023-06-18T01:38:25.450Z,6.40
2023-06-18T01:41:02.926Z,6.40
2023-06-18T01:43:50.238Z,6.80
2023-06-18T01:46:24.446Z,6.50
2023-06-18T01:48:59.200Z,6.10
2023-06-18T01:51:29.120Z,6.53
2023-06-18T01:53:58.841Z,6.63
2023-06-18T01:56:29.614Z,6.30
2023-06-18T01:58:57.733Z,6.40
2023-06-18T02:01:27.781Z,6.80
2023-06-18T02:03:55.756Z,6.63
2023-06-18T02:06:23.441Z,6.57
2023-06-18T02:08:51.146Z,6.75
2023-06-18T02:11:18.961Z,7.00
2023-06-18T02:16:14.481Z,7.45
2023-06-18T02:21:10.149Z,6.63
2023-06-18T02:26:05.288Z,6.63
2023-06-18T02:28:32.910Z,7.07
2023-06-18T02:31:01.230Z,6.47
2023-06-18T02:33:31.416Z,6.90
2023-06-18T02:35:59.677Z,7.07
2023-06-18T02:38:28.543Z,6.88
2023-06-18T02:40:57.212Z,6.88
2023-06-18T02:43:26.540Z,7.32
2023-06-18T02:45:55.526Z,6.80
2023-06-18T02:48:23.259Z,6.85
2023-06-18T02:50:51.232Z,6.82
2023-06-18T02:55:47.162Z,6.97
2023-06-18T02:58:30.455Z,7.07
2023-06-18T03:01:03.438Z,7.35
2023-06-18T03:03:42.719Z,7.00
2023-06-18T03:06:10.352Z,7.03
2023-06-18T03:08:38.683Z,7.35
2023-06-18T03:11:06.764Z,7.30
2023-06-18T03:13:34.467Z,7.13
2023-06-18T03:16:02.112Z,7.38
2023-06-18T03:18:33.984Z,7.10
2023-06-18T03:21:01.776Z,7.53
2023-06-18T03:23:29.460Z,6.90
2023-06-18T03:28:30.610Z,7.00
2023-06-18T03:30:58.980Z,7.22
2023-06-18T03:36:02.030Z,7.50
2023-06-18T03:38:32.985Z,8.05
2023-06-18T03:41:04.512Z,8.18
2023-06-18T03:43:32.658Z,8.77
2023-06-18T03:46:01.270Z,8.38
2023-06-18T03:48:31.124Z,8.55
2023-06-18T03:50:59.144Z,9.40
2023-06-18T03:53:28.689Z,10.07
2023-06-18T03:55:57.001Z,10.10
2023-06-18T03:58:25.454Z,9.90
2023-06-18T04:00:53.237Z,10.18
2023-06-18T04:03:21.493Z,10.77
2023-06-18T04:05:49.892Z,11.20
2023-06-18T04:08:18.031Z,10.80
2023-06-18T04:10:47.249Z,12.07
2023-06-18T04:13:19.190Z,11.02
2023-06-18T04:15:47.672Z,10.40
2023-06-18T04:18:17.032Z,11.13
2023-06-18T04:20:45.864Z,10.80
2023-06-18T04:23:15.117Z,10.52
2023-06-18T04:25:43.912Z,12.10
2023-06-18T04:28:11.868Z,11.85
2023-06-18T04:33:09.401Z,13.10
2023-06-18T04:35:38.105Z,11.98
2023-06-18T04:38:07.930Z,13.45
2023-06-18T04:40:36.062Z,13.90
2023-06-18T04:43:04.496Z,15.15
2023-06-18T04:45:38.817Z,14.38
2023-06-18T04:48:09.252Z,14.00
2023-06-18T04:50:37.330Z,13.77
2023-06-18T04:55:33.067Z,14.48
2023-06-18T04:58:02.393Z,14.50
2023-06-18T05:00:34.508Z,14.43
2023-06-18T05:03:03.265Z,14.55
2023-06-18T05:05:31.747Z,13.95
2023-06-18T05:07:59.975Z,13.02
2023-06-18T05:10:28.411Z,12.48
2023-06-18T05:15:24.748Z,13.32
2023-06-18T05:17:52.404Z,14.80
2023-06-18T05:20:21.921Z,14.85
2023-06-18T05:22:50.267Z,14.35
2023-06-18T05:25:18.659Z,14.02
2023-06-18T05:27:46.815Z,14.23
2023-06-18T05:35:14.074Z,14.80
2023-06-18T05:37:48.422Z,14.57
2023-06-18T05:42:43.778Z,14.93
2023-06-18T05:45:12.763Z,15.82
2023-06-18T05:47:43.040Z,14.60
2023-06-18T05:50:15.170Z,14.75
2023-06-18T05:55:11.362Z,14.75
2023-06-18T06:00:10.422Z,15.00
2023-06-18T06:02:46.308Z,14.60
2023-06-18T06:05:21.796Z,13.25
2023-06-18T06:07:50.981Z,13.57
2023-06-18T06:10:24.204Z,13.15
2023-06-18T06:12:54.602Z,12.73
2023-06-18T06:15:24.088Z,12.93
2023-06-18T06:17:51.839Z,13.23
2023-06-18T06:20:20.208Z,13.38
2023-06-18T06:22:48.764Z,12.25
2023-06-18T06:27:44.492Z,12.18
2023-06-18T06:30:12.526Z,12.48
2023-06-18T06:32:40.323Z,12.52
2023-06-18T06:37:36.537Z,12.10
2023-06-18T06:40:07.433Z,11.93
2023-06-18T06:42:37.799Z,11.70
2023-06-18T06:45:23.996Z,11.67
2023-06-18T06:48:16.732Z,13.00
2023-06-18T06:51:12.723Z,12.45
2023-06-18T06:53:48.844Z,12.15
2023-06-18T06:56:17.089Z,12.82
2023-06-18T06:58:44.979Z,12.43
2023-06-18T07:01:15.594Z,12.05
2023-06-18T07:06:11.169Z,12.77
2023-06-18T07:08:39.020Z,12.02
2023-06-18T07:13:35.002Z,13.18
2023-06-18T07:16:02.885Z,13.00
2023-06-18T07:20:58.217Z,12.10
2023-06-18T07:25:53.403Z,12.25
2023-06-18T07:28:21.421Z,12.50
2023-06-18T07:30:48.965Z,12.32
2023-06-18T07:33:17.656Z,12.75
2023-06-18T07:35:45.639Z,12.02
2023-06-18T07:40:40.950Z,13.43
2023-06-18T07:43:10.607Z,13.98
2023-06-18T07:45:39.586Z,12.15
2023-06-18T07:48:08.949Z,12.88
2023-06-18T07:50:37.183Z,12.57
2023-06-18T07:53:05.107Z,12.70
2023-06-18T07:55:32.707Z,11.77
2023-06-18T07:58:00.545Z,12.20
2023-06-18T08:00:28.400Z,11.20
2023-06-18T08:02:56.026Z,11.52
2023-06-18T08:05:23.743Z,10.60
2023-06-18T08:07:51.411Z,11.70
2023-06-18T08:10:19.007Z,10.07
2023-06-18T08:12:47.003Z,10.27
2023-06-18T08:15:14.849Z,10.18
2023-06-18T08:17:42.553Z,10.15
2023-06-18T08:20:10.835Z,9.88
2023-06-18T08:22:38.933Z,9.30
2023-06-18T08:25:07.971Z,9.45
2023-06-18T08:27:35.954Z,10.35
2023-06-18T08:30:05.319Z,9.35
2023-06-18T08:32:32.976Z,9.77
2023-06-18T08:35:02.373Z,10.60
2023-06-18T08:37:30.335Z,9.25
2023-06-18T08:42:25.506Z,9.73
2023-06-18T08:44:54.574Z,9.10
2023-06-18T08:47:27.543Z,9.77
2023-06-18T08:50:03.304Z,9.07
2023-06-18T08:52:37.767Z,9.18
2023-06-18T08:55:10.920Z,9.23
2023-06-18T08:58:16.773Z,9.80
2023-06-18T09:00:50.130Z,8.48
2023-06-18T09:03:18.679Z,9.45
2023-06-18T09:05:46.861Z,9.60
2023-06-18T09:08:15.674Z,10.20
2023-06-18T09:10:43.744Z,8.50
2023-06-18T09:13:11.602Z,10.27
2023-06-18T09:15:41.099Z,9.23
2023-06-18T09:18:09.918Z,10.73
2023-06-18T09:20:40.831Z,10.65
2023-06-18T09:23:12.485Z,9.93
2023-06-18T09:25:40.514Z,10.68
2023-06-18T09:28:08.967Z,11.07
2023-06-18T09:30:49.599Z,11.45
2023-06-18T09:33:36.108Z,13.02
2023-06-18T09:36:12.092Z,11.40
2023-06-18T09:38:43.630Z,12.02
2023-06-18T09:41:19.191Z,12.27
2023-06-18T09:43:49.343Z,12.38
2023-06-18T09:46:20.858Z,13.52
2023-06-18T09:48:50.196Z,12.98
2023-06-18T09:51:26.219Z,13.20
2023-06-18T09:53:57.307Z,12.43
2023-06-18T09:56:25.316Z,11.45
2023-06-18T09:58:55.238Z,13.48
2023-06-18T10:03:51.050Z,14.32
2023-06-18T10:06:23.811Z,14.48
2023-06-18T10:08:53.874Z,13.65
2023-06-18T10:11:22.688Z,13.38
2023-06-18T10:13:54.573Z,13.30
2023-06-18T10:16:22.885Z,13.90
2023-06-18T10:18:59.005Z,13.35
2023-06-18T10:21:29.949Z,14.13
2023-06-18T10:24:23.347Z,13.85
2023-06-18T10:26:51.749Z,15.63
2023-06-18T10:29:19.656Z,15.90
2023-06-18T10:31:47.556Z,15.15
2023-06-18T10:34:16.609Z,15.25
2023-06-18T10:36:46.051Z,14.18
2023-06-18T10:39:24.363Z,16.27
2023-06-18T10:41:53.813Z,15.80
2023-06-18T10:44:54.569Z,14.35
2023-06-18T10:47:25.110Z,14.48
2023-06-18T10:50:02.073Z,15.35
2023-06-18T10:52:32.280Z,14.98
2023-06-18T10:55:13.632Z,16.52
2023-06-18T10:57:47.012Z,14.82
2023-06-18T11:00:31.631Z,14.63
2023-06-18T11:03:00.519Z,18.48
2023-06-18T11:05:34.398Z,14.55
2023-06-18T11:08:03.110Z,14.32
2023-06-18T11:10:35.353Z,13.98
2023-06-18T11:13:07.825Z,13.23
2023-06-18T11:15:36.564Z,13.75
2023-06-18T11:18:04.764Z,13.77
2023-06-18T11:20:35.223Z,11.95
2023-06-18T11:23:05.209Z,14.00
2023-06-18T11:25:32.979Z,12.77
2023-06-18T11:28:03.288Z,11.90
2023-06-18T11:30:33.562Z,12.55
2023-06-18T11:33:01.874Z,12.32
2023-06-18T11:35:31.858Z,11.77
2023-06-18T11:37:59.781Z,11.02
2023-06-18T11:40:28.022Z,10.63
2023-06-18T11:42:55.656Z,10.50
2023-06-18T11:45:23.782Z,11.52
2023-06-18T11:47:53.407Z,11.00
2023-06-18T11:50:26.562Z,11.70
2023-06-18T11:52:54.740Z,10.00
2023-06-18T11:55:22.715Z,9.10
2023-06-18T11:57:51.165Z,9.38
2023-06-18T12:00:19.271Z,9.75
2023-06-18T12:02:46.859Z,10.40
2023-06-18T12:05:14.514Z,9.30
2023-06-18T12:07:43.982Z,9.43
2023-06-18T12:10:12.965Z,9.07
2023-06-18T12:13:06.256Z,9.48
2023-06-18T12:16:11.721Z,9.73
2023-06-18T12:18:43.372Z,9.43
2023-06-18T12:21:11.292Z,9.93
2023-06-18T12:23:39.821Z,10.00
2023-06-18T12:26:07.675Z,9.50
2023-06-18T12:28:35.889Z,9.55
2023-06-18T12:31:08.283Z,10.10
2023-06-18T12:33:42.258Z,9.80
2023-06-18T12:36:10.064Z,8.95
2023-06-18T12:38:42.371Z,9.00
2023-06-18T12:41:10.251Z,9.02
2023-06-18T12:43:42.359Z,8.23
2023-06-18T12:46:10.322Z,8.70
2023-06-18T12:48:40.612Z,8.65
2023-06-18T12:51:09.197Z,8.90
2023-06-18T12:53:36.945Z,9.27
2023-06-18T12:56:19.382Z,8.55
2023-06-18T12:58:47.861Z,9.80
2023-06-18T13:01:16.755Z,9.20
2023-06-18T13:03:46.436Z,9.75
2023-06-18T13:06:14.621Z,9.15
2023-06-18T13:08:47.529Z,10.32
2023-06-18T13:11:17.047Z,9.57
2023-06-18T13:13:45.523Z,10.80
2023-06-18T13:16:13.384Z,11.10
2023-06-18T13:18:41.012Z,10.13
2023-06-18T13:23:36.101Z,10.02
2023-06-18T13:26:03.943Z,9.75
2023-06-18T13:28:31.614Z,10.20
2023-06-18T13:31:00.090Z,10.27
2023-06-18T13:33:28.242Z,10.98
2023-06-18T13:35:56.220Z,11.50
2023-06-18T13:38:23.891Z,11.02
2023-06-18T13:40:52.535Z,11.38
2023-06-18T13:43:20.879Z,11.23
2023-06-18T13:45:50.546Z,10.05
2023-06-18T13:48:19.205Z,10.60
2023-06-18T13:50:47.112Z,10.93
2023-06-18T13:53:15.319Z,9.82
2023-06-18T13:55:43.749Z,11.05
2023-06-18T13:58:11.876Z,10.48
2023-06-18T14:00:40.791Z,10.30
2023-06-18T14:03:09.125Z,10.80
2023-06-18T14:05:37.400Z,10.88
2023-06-18T14:08:06.043Z,11.52
2023-06-18T14:10:37.132Z,10.27
2023-06-18T14:13:07.038Z,10.45
2023-06-18T14:15:34.888Z,10.88
2023-06-18T14:18:02.966Z,11.23
2023-06-18T14:20:31.142Z,10.82
2023-06-18T14:22:59.375Z,11.60
2023-06-18T14:25:27.636Z,11.05
2023-06-18T14:27:56.592Z,11.77
2023-06-18T14:30:29.033Z,11.30
2023-06-18T14:33:00.629Z,10.70
2023-06-18T14:35:29.637Z,11.27
2023-06-18T14:37:57.441Z,13.65
2023-06-18T14:40:25.830Z,15.85
2023-06-18T14:42:56.228Z,13.88
2023-06-18T14:45:27.359Z,12.55
2023-06-18T14:47:55.770Z,11.93
2023-06-18T14:50:25.077Z,11.32
2023-06-18T14:53:00.802Z,11.65
2023-06-18T14:55:34.435Z,11.00
2023-06-18T14:58:02.839Z,10.32
2023-06-18T15:00:30.648Z,10.85
2023-06-18T15:02:58.895Z,10.98
2023-06-18T15:05:27.138Z,10.32
2023-06-18T15:07:54.743Z,10.52
2023-06-18T15:12:49.861Z,11.00
2023-06-18T15:15:18.203Z,10.50
2023-06-18T15:17:45.950Z,11.00
2023-06-18T15:20:15.184Z,10.93
2023-06-18T15:22:43.351Z,10.80
2023-06-18T15:25:11.470Z,10.80
2023-06-18T15:27:39.225Z,11.20
2023-06-18T15:30:09.204Z,11.18
2023-06-18T15:32:37.388Z,11.43
2023-06-18T15:35:05.612Z,12.05
2023-06-18T15:37:33.352Z,12.38
2023-06-18T15:42:28.854Z,13.30
2023-06-18T15:44:56.645Z,15.00
2023-06-18T15:54:47.455Z,15.68
2023-06-18T15:59:37.978Z,15.65
2023-06-18T16:02:05.907Z,15.75
2023-06-18T16:07:01.175Z,15.65
2023-06-18T16:09:29.184Z,16.92
2023-06-18T16:11:56.723Z,15.95
2023-06-18T16:14:24.416Z,16.42
2023-06-18T16:19:20.232Z,15.98
2023-06-18T16:21:47.758Z,16.25
2023-06-18T16:24:17.874Z,14.05
2023-06-18T16:26:45.846Z,13.00
2023-06-18T16:29:13.639Z,11.85
2023-06-18T16:34:08.740Z,10.75
2023-06-18T16:39:04.682Z,8.80
2023-06-18T16:41:33.699Z,7.65
2023-06-18T16:44:01.445Z,6.53
2023-06-18T16:46:29.145Z,6.93
2023-06-18T16:51:25.180Z,6.68
2023-06-18T16:53:52.864Z,6.53
2023-06-18T16:58:49.026Z,6.90
2023-06-18T17:03:47.909Z,7.00
2023-06-18T17:08:43.990Z,7.28
2023-06-18T17:13:39.676Z,6.95
2023-06-18T17:16:07.730Z,7.38
2023-06-18T17:18:35.317Z,7.40
2023-06-18T17:21:03.356Z,7.95
2023-06-18T17:23:31.236Z,7.60
2023-06-18T17:25:59.068Z,8.02
2023-06-18T17:33:22.752Z,8.65
2023-06-18T17:35:50.394Z,9.07
2023-06-18T17:38:17.974Z,7.63
2023-06-18T17:40:45.731Z,8.50
2023-06-18T17:43:13.959Z,7.72
2023-06-18T17:45:41.565Z,7.97
2023-06-18T17:48:09.239Z,7.57
2023-06-18T17:50:36.968Z,7.75
2023-06-18T17:53:05.203Z,9.18
2023-06-18T17:55:35.020Z,9.55
2023-06-18T17:58:03.143Z,8.30
2023-06-18T18:00:30.713Z,8.73
2023-06-18T18:02:58.431Z,8.38
2023-06-18T18:05:29.198Z,9.25
2023-06-18T18:07:57.860Z,8.90
2023-06-18T18:10:25.540Z,9.13
2023-06-18T18:12:53.611Z,9.70
2023-06-18T18:15:21.893Z,9.70
2023-06-18T18:17:49.601Z,9.30
2023-06-18T18:20:17.744Z,7.72
2023-06-18T18:22:45.372Z,8.98
2023-06-18T18:25:13.486Z,7.70
2023-06-18T18:27:41.138Z,6.22
2023-06-18T18:30:09.184Z,5.43
2023-06-18T18:32:36.860Z,5.47
2023-06-18T18:35:05.681Z,8.10
2023-06-18T18:40:21.568Z,9.23
2023-06-18T18:42:56.447Z,8.95
2023-06-18T18:45:25.277Z,8.68
2023-06-18T18:47:53.484Z,7.68
2023-06-18T18:50:24.277Z,7.30
2023-06-18T18:52:52.339Z,8.55
2023-06-18T18:57:49.885Z,9.15
2023-06-18T19:00:19.000Z,9.00
2023-06-18T19:02:47.004Z,9.45
2023-06-18T19:06:25.137Z,9.65
2023-06-18T19:08:52.908Z,8.75
2023-06-18T19:11:20.540Z,8.68
2023-06-18T19:13:48.193Z,9.05
2023-06-18T19:16:16.067Z,8.43
2023-06-18T19:21:12.090Z,8.18
2023-06-18T19:26:07.875Z,8.52
2023-06-18T19:28:35.528Z,9.52
2023-06-18T19:31:03.157Z,9.88
2023-06-18T19:33:31.720Z,9.23
2023-06-18T19:36:00.002Z,9.48
2023-06-18T19:38:28.182Z,9.75
2023-06-18T19:40:56.669Z,11.05
2023-06-18T19:43:24.552Z,10.23
2023-06-18T19:45:53.072Z,10.52
2023-06-18T19:48:23.460Z,11.02
2023-06-18T19:50:51.967Z,12.25
2023-06-18T19:53:21.103Z,12.05
2023-06-18T19:55:49.483Z,12.63
2023-06-18T20:03:15.504Z,11.88
2023-06-18T20:08:11.131Z,12.25
2023-06-18T20:10:39.091Z,12.60
2023-06-18T20:13:07.974Z,11.95
2023-06-18T20:15:37.381Z,11.93
2023-06-18T20:18:05.083Z,12.60
2023-06-18T20:20:33.203Z,13.15
2023-06-18T20:23:00.832Z,13.57
2023-06-18T20:25:29.641Z,14.68
2023-06-18T20:27:57.240Z,14.73
2023-06-18T20:30:25.297Z,16.23
2023-06-18T20:32:54.220Z,14.98
2023-06-18T20:36:28.143Z,16.20
2023-06-18T20:41:28.110Z,16.67
2023-06-18T20:43:56.243Z,18.33
2023-06-18T20:49:32.390Z,22.50
2023-06-18T20:52:00.840Z,25.20
2023-06-18T20:54:28.586Z,26.98
2023-06-18T21:01:53.931Z,20.42
2023-06-18T21:04:22.050Z,21.63
2023-06-18T21:06:59.553Z,19.80
2023-06-18T21:09:30.723Z,20.02
2023-06-18T21:11:59.225Z,18.58
2023-06-18T21:14:27.256Z,18.50
2023-06-18T21:17:06.654Z,19.35
2023-06-18T21:19:55.979Z,20.40
2023-06-18T21:25:27.242Z,20.45
2023-06-18T21:34:16.416Z,17.90
2023-06-18T21:51:59.498Z,13.38
2023-06-18T21:54:28.724Z,14.35
2023-06-18T21:56:57.945Z,13.07
2023-06-18T21:59:27.046Z,12.32
2023-06-18T22:05:12.484Z,13.30
2023-06-18T22:07:45.886Z,13.70
2023-06-18T22:10:37.841Z,12.98
2023-06-18T22:13:05.713Z,12.60
2023-06-18T22:15:33.411Z,14.38
2023-06-18T22:18:01.685Z,14.50
2023-06-18T22:20:48.619Z,13.98
2023-06-18T22:23:17.089Z,17.80
2023-06-18T22:30:40.397Z,15.55
2023-06-18T22:33:08.198Z,17.88
2023-06-18T22:35:37.561Z,17.95
2023-06-18T22:38:05.475Z,17.00
2023-06-18T22:45:28.866Z,17.40
2023-06-18T22:50:24.969Z,17.95
2023-06-18T22:52:53.084Z,18.73
2023-06-18T22:55:20.821Z,19.30
2023-06-18T22:57:48.834Z,18.20
2023-06-18T23:00:18.163Z,17.38
2023-06-18T23:02:46.860Z,15.63
2023-06-18T23:05:15.451Z,14.75
2023-06-18T23:07:43.460Z,13.52
2023-06-18T23:12:38.746Z,13.15
2023-06-18T23:15:07.271Z,13.30
2023-06-18T23:17:35.115Z,12.60
2023-06-18T23:20:04.740Z,12.98
2023-06-18T23:22:32.413Z,12.98
2023-06-18T23:25:00.193Z,13.43
2023-06-18T23:27:28.246Z,11.82
2023-06-18T23:29:56.033Z,12.23
2023-06-18T23:34:51.635Z,12.57
2023-06-18T23:39:49.183Z,14.38
2023-06-18T23:42:17.242Z,15.00
2023-06-18T23:47:12.722Z,11.77
2023-06-18T23:52:10.463Z,11.30
2023-06-18T23:54:39.158Z,13.23
2023-06-18T23:57:07.547Z,12.95
2023-06-18T23:59:35.172Z,12.27
